createdAt,value
2023-05-23T00:04:13.111Z,19
2023-05-23T00:09:29.414Z,21
2023-05-23T00:14:45.814Z,22
2023-05-23T00:20:02.157Z,23
2023-05-23T00:25:18.533Z,20
2023-05-23T00:30:34.941Z,22
2023-05-23T00:35:51.320Z,22
2023-05-23T00:41:23.392Z,22
2023-05-23T00:46:41.438Z,19
2023-05-23T00:51:57.800Z,20
2023-05-23T00:57:14.158Z,21
2023-05-23T01:02:30.614Z,20
2023-05-23T01:07:46.905Z,18
2023-05-23T01:13:03.791Z,19
2023-05-23T01:18:19.862Z,20
2023-05-23T01:23:36.234Z,21
2023-05-23T01:28:52.654Z,23
2023-05-23T01:34:08.985Z,20
2023-05-23T01:39:25.339Z,19
2023-05-23T01:44:41.720Z,22
2023-05-23T01:49:58.085Z,21
2023-05-23T01:55:14.460Z,22
2023-05-23T02:00:30.840Z,19
2023-05-23T02:05:47.210Z,19
2023-05-23T02:11:03.612Z,19
2023-05-23T02:16:20.010Z,18
2023-05-23T02:21:36.361Z,17
2023-05-23T02:26:52.718Z,17
2023-05-23T02:32:09.100Z,16
2023-05-23T02:37:25.486Z,19
2023-05-23T02:42:41.853Z,17
2023-05-23T02:47:58.286Z,18
2023-05-23T02:53:14.630Z,17
2023-05-23T02:58:30.981Z,21
2023-05-23T03:03:47.410Z,16
2023-05-23T03:09:03.718Z,21
2023-05-23T03:14:20.137Z,22
2023-05-23T03:19:37.506Z,20
2023-05-23T03:24:53.723Z,20
2023-05-23T03:30:10.068Z,19
2023-05-23T03:35:26.438Z,19
2023-05-23T03:40:42.790Z,17
2023-05-23T03:45:59.213Z,20
2023-05-23T03:51:15.563Z,18
2023-05-23T03:56:31.937Z,19
2023-05-23T04:01:48.324Z,20
2023-05-23T04:07:04.681Z,16
2023-05-23T04:12:21.073Z,21
2023-05-23T04:17:37.445Z,17
2023-05-23T04:22:53.843Z,20
2023-05-23T04:28:10.186Z,18
2023-05-23T04:33:26.575Z,18
2023-05-23T04:38:43.146Z,17
2023-05-23T04:43:59.529Z,17
2023-05-23T04:49:15.868Z,22
2023-05-23T04:54:32.252Z,23
2023-05-23T04:59:48.627Z,26
2023-05-23T05:05:05.009Z,28
2023-05-23T05:10:21.377Z,27
2023-05-23T05:15:37.738Z,31
2023-05-23T05:20:54.120Z,29
2023-05-23T05:26:10.508Z,27
2023-05-23T05:31:29.443Z,25
2023-05-23T05:36:43.256Z,26
2023-05-23T05:41:59.634Z,23
2023-05-23T05:47:15.991Z,23
2023-05-23T05:52:32.366Z,30
2023-05-23T05:57:48.464Z,23
2023-05-23T06:03:04.902Z,24
2023-05-23T06:08:21.220Z,21
2023-05-23T06:13:37.571Z,18
2023-05-23T06:18:53.935Z,18
2023-05-23T06:24:10.308Z,19
2023-05-23T06:29:26.714Z,18
2023-05-23T06:34:43.084Z,18
2023-05-23T06:39:59.430Z,18
2023-05-23T06:45:16.664Z,23
2023-05-23T06:50:33.240Z,17
2023-05-23T06:55:49.603Z,17
2023-05-23T07:01:05.993Z,14
2023-05-23T07:06:22.302Z,15
2023-05-23T07:11:38.690Z,19
2023-05-23T07:16:55.015Z,22
2023-05-23T07:22:11.364Z,18
2023-05-23T07:27:27.709Z,13
2023-05-23T07:32:44.184Z,15
2023-05-23T07:38:00.226Z,16
2023-05-23T07:43:17.154Z,16
2023-05-23T07:48:33.495Z,16
2023-05-23T07:53:49.832Z,16
2023-05-23T07:59:06.921Z,18
2023-05-23T08:04:23.522Z,16
2023-05-23T08:09:39.815Z,14
2023-05-23T08:14:56.199Z,16
2023-05-23T08:20:12.519Z,17
2023-05-23T08:25:28.846Z,20
2023-05-23T08:30:45.193Z,14
2023-05-23T08:36:01.551Z,21
2023-05-23T08:41:17.851Z,13
2023-05-23T08:46:34.220Z,15
2023-05-23T08:51:50.473Z,13
2023-05-23T08:57:06.736Z,12
2023-05-23T09:02:23.044Z,13
2023-05-23T09:07:39.536Z,16
2023-05-23T09:12:55.839Z,13
2023-05-23T09:18:12.099Z,14
2023-05-23T09:23:28.379Z,13
2023-05-23T09:28:44.638Z,16
2023-05-23T09:34:00.880Z,15
2023-05-23T09:39:17.125Z,14
2023-05-23T09:44:33.370Z,14
2023-05-23T09:49:49.598Z,15
2023-05-23T09:55:05.843Z,15
2023-05-23T10:00:22.097Z,17
2023-05-23T10:05:38.336Z,15
2023-05-23T10:10:54.590Z,13
2023-05-23T10:16:10.817Z,15
2023-05-23T10:21:27.091Z,15
2023-05-23T10:26:43.310Z,15
2023-05-23T10:31:59.638Z,16
2023-05-23T10:37:15.806Z,16
2023-05-23T10:42:32.061Z,15
2023-05-23T10:47:48.311Z,15
2023-05-23T10:53:04.554Z,16
2023-05-23T10:58:20.788Z,16
2023-05-23T11:03:38.066Z,18
2023-05-23T11:08:54.232Z,16
2023-05-23T11:14:10.499Z,21
2023-05-23T11:19:26.842Z,15
2023-05-23T11:24:42.994Z,15
2023-05-23T11:29:59.246Z,18
2023-05-23T11:35:15.523Z,15
2023-05-23T11:40:31.821Z,15
2023-05-23T11:45:48.995Z,15
2023-05-23T11:51:05.284Z,17
2023-05-23T11:56:21.560Z,16
2023-05-23T12:01:37.875Z,15
2023-05-23T12:06:54.148Z,13
2023-05-23T12:12:10.445Z,16
2023-05-23T12:17:26.760Z,19
2023-05-23T12:22:43.040Z,14
2023-05-23T12:27:59.324Z,17
2023-05-23T12:33:15.820Z,16
2023-05-23T12:38:31.879Z,13
2023-05-23T12:43:48.170Z,15
2023-05-23T12:49:04.456Z,15
2023-05-23T12:54:20.735Z,15
2023-05-23T12:59:37.000Z,14
2023-05-23T13:04:53.295Z,14
2023-05-23T13:10:09.668Z,14
2023-05-23T13:15:25.857Z,17
2023-05-23T13:20:42.380Z,18
2023-05-23T13:25:58.654Z,18
2023-05-23T13:31:15.158Z,14
2023-05-23T13:36:31.227Z,19
2023-05-23T13:41:47.532Z,18
2023-05-23T13:47:08.018Z,18
2023-05-23T13:52:20.180Z,18
2023-05-23T13:57:36.432Z,18
2023-05-23T14:02:52.826Z,18
2023-05-23T14:08:09.050Z,20
2023-05-23T14:13:25.374Z,22
2023-05-23T14:18:41.701Z,18
2023-05-23T14:23:57.998Z,18
2023-05-23T14:29:14.898Z,19
2023-05-23T14:34:31.192Z,19
2023-05-23T14:39:47.526Z,22
2023-05-23T14:45:03.855Z,21
2023-05-23T14:50:20.177Z,19
2023-05-23T14:55:36.478Z,22
2023-05-23T15:00:52.811Z,22
2023-05-23T15:06:09.103Z,18
2023-05-23T15:11:27.451Z,19
2023-05-23T15:16:41.896Z,22
2023-05-23T15:21:58.090Z,20
2023-05-23T15:27:20.509Z,20
2023-05-23T15:32:30.892Z,20
2023-05-23T15:37:47.060Z,20
2023-05-23T15:43:03.400Z,19
2023-05-23T15:48:19.784Z,20
2023-05-23T15:53:43.291Z,19
2023-05-23T15:58:52.961Z,19
2023-05-23T16:04:09.527Z,25
2023-05-23T16:09:25.782Z,21
2023-05-23T16:14:42.042Z,21
2023-05-23T16:19:58.346Z,20
2023-05-23T16:25:14.692Z,19
2023-05-23T16:30:31.026Z,23
2023-05-23T16:35:47.363Z,19
2023-05-23T16:41:03.723Z,19
2023-05-23T16:46:20.851Z,22
2023-05-23T16:51:36.699Z,22
2023-05-23T16:56:53.021Z,18
2023-05-23T17:02:09.632Z,24
2023-05-23T17:07:25.940Z,13
2023-05-23T17:12:42.281Z,12
2023-05-23T17:17:58.642Z,9
2023-05-23T17:23:14.930Z,10
2023-05-23T17:28:31.265Z,9
2023-05-23T17:33:47.581Z,12
2023-05-23T17:39:03.910Z,12
2023-05-23T17:44:20.248Z,9
2023-05-23T17:49:36.593Z,6
2023-05-23T17:54:53.014Z,5
2023-05-23T18:00:09.330Z,5
2023-05-23T18:05:25.678Z,4
2023-05-23T18:10:42.691Z,3
2023-05-23T18:15:58.867Z,4
2023-05-23T18:21:16.867Z,4
2023-05-23T18:26:31.567Z,5
2023-05-23T18:31:47.927Z,3
2023-05-23T18:37:04.262Z,3
2023-05-23T18:42:20.626Z,4
2023-05-23T18:47:37.012Z,4
2023-05-23T18:52:53.338Z,3
2023-05-23T18:58:09.653Z,4
2023-05-23T19:03:26.059Z,4
2023-05-23T19:08:42.368Z,3
2023-05-23T19:13:58.690Z,3
2023-05-23T19:19:15.050Z,8
2023-05-23T19:24:31.364Z,11
2023-05-23T19:29:47.710Z,10
2023-05-23T19:35:04.162Z,11
2023-05-23T19:40:20.465Z,16
2023-05-23T19:45:36.858Z,17
2023-05-23T19:50:53.226Z,15
2023-05-23T19:56:09.563Z,13
2023-05-23T20:01:25.995Z,10
2023-05-23T20:06:42.265Z,11
2023-05-23T20:11:58.635Z,11
2023-05-23T20:17:15.034Z,13
2023-05-23T20:22:31.328Z,14
2023-05-23T20:27:47.688Z,21
2023-05-23T20:33:04.107Z,7
2023-05-23T20:38:20.393Z,10
2023-05-23T20:43:36.736Z,12
2023-05-23T20:48:53.087Z,7
2023-05-23T20:54:09.456Z,5
2023-05-23T20:59:25.794Z,4
2023-05-23T21:04:42.147Z,2
2023-05-23T21:09:58.469Z,2
2023-05-23T21:15:14.855Z,5
2023-05-23T21:20:31.169Z,2
2023-05-23T21:25:47.513Z,3
2023-05-23T21:31:03.879Z,2
2023-05-23T21:36:20.174Z,2
2023-05-23T21:41:36.529Z,2
2023-05-23T21:46:52.978Z,2
2023-05-23T21:52:09.231Z,4
2023-05-23T21:57:25.574Z,3
2023-05-23T22:02:42.140Z,4
2023-05-23T22:07:58.471Z,3
2023-05-23T22:13:14.806Z,3
2023-05-23T22:18:43.893Z,4
2023-05-23T22:23:47.491Z,3
2023-05-23T22:29:03.822Z,4
2023-05-23T22:34:20.164Z,4
2023-05-23T22:39:36.499Z,3
2023-05-23T22:44:52.849Z,4
2023-05-23T22:50:09.193Z,3
2023-05-23T22:55:25.562Z,4
2023-05-23T23:00:42.145Z,4
2023-05-23T23:05:58.274Z,4
2023-05-23T23:11:14.621Z,4
2023-05-23T23:16:31.017Z,4
2023-05-23T23:21:47.322Z,5
2023-05-23T23:27:03.639Z,4
2023-05-23T23:32:20.272Z,4
2023-05-23T23:37:36.635Z,4
2023-05-23T23:42:52.997Z,4
2023-05-23T23:48:09.363Z,5
2023-05-23T23:53:25.673Z,5
2023-05-23T23:58:42.008Z,5
